Time;durP1;ratioP1;P1;durP2;ratioP2;P2;SDS_P1;SDS_P2;PMS_P1;PMS_P2;Temp;Humidity;BMP_temperature;BMP_pressure;BME280_temperature;BME280_humidity;BME280_pressure;Samples;Min_cycle;Max_cycle;Signal;HPM_P1;HPM_P2
2024/01/17 00:01:59;;;;;;;36.80;18.23;;;-8.60;99.90;;;;;;5095024;28;20227;-71
2024/01/17 00:04:27;;;;;;;34.97;17.30;;;-8.60;99.90;;;;;;5095450;28;20227;-71
2024/01/17 00:06:55;;;;;;;32.93;17.63;;;-8.70;99.90;;;;;;5095118;28;20197;-71
2024/01/17 00:09:21;;;;;;;35.70;17.43;;;-8.70;99.90;;;;;;5095215;28;20206;-72
2024/01/17 00:11:49;;;;;;;31.40;17.90;;;-8.70;99.90;;;;;;5094928;28;20201;-71
2024/01/17 00:14:16;;;;;;;28.47;17.50;;;-8.70;99.90;;;;;;5095096;28;20292;-73
2024/01/17 00:16:42;;;;;;;35.53;17.57;;;-8.70;99.90;;;;;;5095012;28;20191;-72
2024/01/17 00:19:10;;;;;;;32.97;18.07;;;-8.70;99.90;;;;;;5095253;28;20203;-73
2024/01/17 00:21:37;;;;;;;30.60;17.77;;;-8.70;99.90;;;;;;5094786;28;20307;-73
2024/01/17 00:24:04;;;;;;;29.60;17.17;;;-8.60;99.90;;;;;;5094830;28;20202;-73
2024/01/17 00:26:30;;;;;;;29.87;17.87;;;-8.80;99.90;;;;;;5094595;28;20267;-73
2024/01/17 00:28:57;;;;;;;32.37;18.10;;;-8.80;99.90;;;;;;5094713;28;20210;-70
2024/01/17 00:31:24;;;;;;;35.40;18.43;;;-8.70;99.90;;;;;;5095013;28;20258;-71
2024/01/17 00:33:50;;;;;;;34.80;16.93;;;-8.70;99.90;;;;;;5094877;28;20210;-72
2024/01/17 00:36:18;;;;;;;32.33;17.17;;;-8.70;99.90;;;;;;5094695;28;20198;-71
2024/01/17 00:38:45;;;;;;;33.20;17.93;;;-8.70;99.90;;;;;;5094724;28;20202;-71
2024/01/17 00:41:12;;;;;;;28.77;15.90;;;-8.80;99.90;;;;;;5094438;28;20226;-71
2024/01/17 00:43:38;;;;;;;30.67;17.33;;;-8.80;99.90;;;;;;5094726;28;20247;-71
2024/01/17 00:46:05;;;;;;;31.07;17.17;;;-8.90;99.90;;;;;;5094277;28;20229;-71
2024/01/17 00:48:32;;;;;;;32.13;17.33;;;-8.90;99.90;;;;;;5094503;28;20257;-71
2024/01/17 00:50:58;;;;;;;30.93;16.80;;;-8.90;99.90;;;;;;5094503;28;20256;-71
2024/01/17 00:53:26;;;;;;;31.97;17.37;;;-8.90;99.90;;;;;;5094328;28;20789;-71
2024/01/17 00:55:53;;;;;;;31.30;16.57;;;-8.80;99.90;;;;;;5094318;28;20209;-71
2024/01/17 00:58:20;;;;;;;27.13;16.13;;;-8.90;99.90;;;;;;5094427;28;20203;-72
2024/01/17 01:00:46;;;;;;;31.03;17.10;;;-8.90;99.90;;;;;;5094398;28;20232;-71
2024/01/17 01:03:13;;;;;;;28.90;16.80;;;-8.90;99.90;;;;;;5094029;28;20230;-72
2024/01/17 01:05:40;;;;;;;30.17;17.13;;;-8.90;99.90;;;;;;5093988;28;20205;-72
2024/01/17 01:08:07;;;;;;;29.57;17.13;;;-8.80;99.90;;;;;;5094187;28;20195;-72
2024/01/17 01:10:35;;;;;;;26.77;15.80;;;-8.80;99.90;;;;;;5093969;28;20804;-72
2024/01/17 01:13:01;;;;;;;24.87;16.03;;;-8.70;99.90;;;;;;5093982;28;20244;-72
2024/01/17 01:15:28;;;;;;;32.77;16.17;;;-8.70;99.90;;;;;;5094146;28;20268;-72
2024/01/17 01:17:54;;;;;;;27.53;15.80;;;-8.80;99.90;;;;;;5094000;28;20276;-72
2024/01/17 01:20:21;;;;;;;29.50;16.30;;;-8.70;99.90;;;;;;5093570;28;20201;-72
2024/01/17 01:22:48;;;;;;;28.97;16.20;;;-8.70;99.90;;;;;;5093640;28;20692;-72
2024/01/17 01:25:14;;;;;;;28.90;17.27;;;-8.60;99.90;;;;;;5093937;28;20201;-72
2024/01/17 01:27:42;;;;;;;26.67;16.57;;;-8.60;99.90;;;;;;5093493;28;20287;-72
2024/01/17 01:30:10;;;;;;;31.97;15.70;;;-8.60;99.90;;;;;;5093770;28;20248;-72
2024/01/17 01:32:37;;;;;;;29.60;16.67;;;-8.60;99.90;;;;;;5093405;28;20658;-71
2024/01/17 01:35:04;;;;;;;28.50;15.03;;;-8.50;99.90;;;;;;5093522;28;20584;-72
2024/01/17 01:37:31;;;;;;;29.37;16.80;;;-8.50;99.90;;;;;;5093477;28;20278;-71
2024/01/17 01:39:58;;;;;;;28.83;16.63;;;-8.50;99.90;;;;;;5093697;28;20202;-71
2024/01/17 01:42:24;;;;;;;28.17;15.83;;;-8.50;99.90;;;;;;5093496;28;20235;-72
2024/01/17 01:44:52;;;;;;;28.10;16.80;;;-8.40;99.90;;;;;;5093601;28;20257;-71
2024/01/17 01:47:19;;;;;;;30.17;16.13;;;-8.40;99.90;;;;;;5093429;28;20211;-71
2024/01/17 01:49:48;;;;;;;35.27;16.23;;;-8.40;99.90;;;;;;5093372;28;20198;-71
2024/01/17 01:52:17;;;;;;;27.47;16.83;;;-8.30;99.90;;;;;;5093154;28;20224;-71
2024/01/17 01:54:44;;;;;;;27.77;15.47;;;-8.30;99.90;;;;;;5093429;28;20213;-72
2024/01/17 01:57:11;;;;;;;31.17;15.93;;;-8.30;99.90;;;;;;5092854;28;20539;-71
2024/01/17 01:59:38;;;;;;;32.33;16.33;;;-8.30;99.90;;;;;;5093124;28;20656;-72
2024/01/17 02:02:07;;;;;;;26.23;15.63;;;-8.30;99.90;;;;;;5093114;28;20226;-72
2024/01/17 02:04:35;;;;;;;24.33;15.00;;;-8.20;99.90;;;;;;5092979;28;20249;-72
2024/01/17 02:07:02;;;;;;;26.33;16.73;;;-8.20;99.90;;;;;;5093006;28;20291;-72
2024/01/17 02:09:30;;;;;;;32.03;17.37;;;-8.20;99.90;;;;;;5093131;28;20203;-72
2024/01/17 02:11:58;;;;;;;28.87;16.67;;;-8.20;99.90;;;;;;5092923;28;20290;-72
2024/01/17 02:14:25;;;;;;;28.83;16.83;;;-8.10;99.90;;;;;;5093190;28;20290;-72
2024/01/17 02:16:51;;;;;;;30.80;16.83;;;-8.10;99.90;;;;;;5092980;28;20196;-72
2024/01/17 02:19:21;;;;;;;30.03;16.80;;;-8.00;99.90;;;;;;5092835;28;20199;-71
2024/01/17 02:21:48;;;;;;;28.17;16.73;;;-8.00;99.90;;;;;;5096177;28;20301;-72
2024/01/17 02:24:16;;;;;;;29.33;17.53;;;-7.90;99.90;;;;;;5098395;28;20656;-72
2024/01/17 02:26:43;;;;;;;28.60;16.07;;;-7.90;99.90;;;;;;5092663;28;20703;-72
2024/01/17 02:29:10;;;;;;;29.13;16.70;;;-7.90;99.90;;;;;;5092879;28;20204;-72
2024/01/17 02:31:37;;;;;;;33.37;17.10;;;-7.90;99.90;;;;;;5092621;28;20651;-72
2024/01/17 02:34:04;;;;;;;28.10;16.17;;;-7.90;99.90;;;;;;5092726;28;20723;-71
2024/01/17 02:36:31;;;;;;;26.07;16.07;;;-7.90;99.90;;;;;;5092853;28;20200;-71
2024/01/17 02:38:57;;;;;;;26.33;16.63;;;-7.80;99.90;;;;;;5092906;28;20226;-71
2024/01/17 02:41:25;;;;;;;25.40;15.17;;;-7.80;99.90;;;;;;5092561;28;20194;-71
2024/01/17 02:43:52;;;;;;;31.73;16.87;;;-7.80;99.90;;;;;;5092699;28;20193;-71
2024/01/17 02:46:19;;;;;;;24.20;14.63;;;-7.70;99.90;;;;;;5092542;28;20192;-72
2024/01/17 02:48:45;;;;;;;27.63;15.63;;;-7.70;99.90;;;;;;5092869;28;20200;-72
2024/01/17 02:51:12;;;;;;;28.10;15.50;;;-7.60;99.90;;;;;;5092760;28;20200;-71
2024/01/17 02:53:38;;;;;;;24.70;15.50;;;-7.60;99.90;;;;;;5092701;28;20207;-71
2024/01/17 02:56:05;;;;;;;31.33;16.53;;;-7.60;99.90;;;;;;5092727;28;20269;-71
2024/01/17 02:58:33;;;;;;;23.33;15.03;;;-7.50;99.90;;;;;;5092626;28;20203;-70
2024/01/17 03:01:00;;;;;;;30.23;17.00;;;-7.50;99.90;;;;;;5092493;28;20196;-71
2024/01/17 03:03:26;;;;;;;26.33;15.77;;;-7.50;99.90;;;;;;5092585;28;20276;-71
2024/01/17 03:05:53;;;;;;;26.30;15.67;;;-7.40;99.90;;;;;;5092543;28;20208;-71
2024/01/17 03:08:20;;;;;;;25.63;16.23;;;-7.40;99.90;;;;;;5092567;28;20617;-71
2024/01/17 03:10:46;;;;;;;25.37;15.03;;;-7.40;99.90;;;;;;5094848;28;20204;-72
2024/01/17 03:13:14;;;;;;;24.03;15.03;;;-7.40;99.90;;;;;;5096389;28;20195;-72
2024/01/17 03:15:42;;;;;;;27.37;16.00;;;-7.30;99.90;;;;;;5096168;28;20202;-71
2024/01/17 03:18:13;;;;;;;25.57;15.60;;;-7.20;99.90;;;;;;5096507;28;20192;-71
2024/01/17 03:20:40;;;;;;;22.57;15.43;;;-7.20;99.90;;;;;;5096322;28;20192;-71
2024/01/17 03:23:07;;;;;;;25.50;15.27;;;-7.20;99.90;;;;;;5096171;28;20227;-72
2024/01/17 03:25:33;;;;;;;27.97;15.40;;;-7.20;99.90;;;;;;5096169;28;20223;-72
2024/01/17 03:28:00;;;;;;;27.43;15.63;;;-7.20;99.90;;;;;;5095707;28;20703;-71
2024/01/17 03:30:26;;;;;;;24.30;14.87;;;-7.20;99.90;;;;;;5096208;28;20200;-72
2024/01/17 03:32:54;;;;;;;25.53;14.33;;;-7.20;99.90;;;;;;5096057;28;20226;-72
2024/01/17 03:35:21;;;;;;;26.57;14.73;;;-7.20;99.90;;;;;;5096024;28;20196;-71
2024/01/17 03:37:48;;;;;;;28.30;14.27;;;-7.10;99.90;;;;;;5095846;28;20273;-72
2024/01/17 03:40:15;;;;;;;23.40;14.40;;;-7.10;99.90;;;;;;5095826;28;20204;-72
2024/01/17 03:42:41;;;;;;;22.90;14.73;;;-7.10;99.90;;;;;;5095696;28;20630;-72
2024/01/17 03:45:08;;;;;;;27.00;14.70;;;-7.00;99.90;;;;;;5095571;28;20594;-71
2024/01/17 03:47:36;;;;;;;24.97;15.10;;;-7.00;99.90;;;;;;5095777;28;20238;-71
2024/01/17 03:50:04;;;;;;;26.00;14.37;;;-7.00;99.90;;;;;;5095811;28;20245;-71
2024/01/17 03:52:31;;;;;;;21.43;13.53;;;-7.00;99.90;;;;;;5095621;28;20203;-71
2024/01/17 03:54:58;;;;;;;23.73;14.23;;;-7.00;99.90;;;;;;5095443;28;20218;-72
2024/01/17 03:57:24;;;;;;;25.17;13.97;;;-7.00;99.90;;;;;;5095740;28;20227;-71
2024/01/17 03:59:51;;;;;;;21.30;13.90;;;-7.00;99.90;;;;;;5095644;28;20192;-71
2024/01/17 04:02:17;;;;;;;26.47;15.77;;;-7.00;99.90;;;;;;5095317;28;20224;-72
2024/01/17 04:04:45;;;;;;;26.43;14.30;;;-7.00;99.90;;;;;;5095509;28;20257;-71
2024/01/17 04:07:13;;;;;;;22.90;14.73;;;-7.00;99.90;;;;;;5095496;28;20535;-71
2024/01/17 04:09:41;;;;;;;24.33;14.37;;;-7.00;99.90;;;;;;5095251;28;20591;-71
2024/01/17 04:12:07;;;;;;;25.47;14.77;;;-6.90;99.90;;;;;;5095434;28;20299;-72
2024/01/17 04:14:35;;;;;;;24.07;14.77;;;-7.00;99.90;;;;;;5095367;28;20222;-72
2024/01/17 04:17:01;;;;;;;22.47;13.87;;;-7.00;99.90;;;;;;5095134;28;20196;-71
2024/01/17 04:19:28;;;;;;;21.60;12.83;;;-6.90;99.90;;;;;;5095096;28;20196;-71
2024/01/17 04:21:56;;;;;;;25.97;15.30;;;-6.90;99.90;;;;;;5094760;28;20196;-71
2024/01/17 04:24:25;;;;;;;27.23;14.37;;;-6.90;99.90;;;;;;5094932;28;20306;-71
2024/01/17 04:26:53;;;;;;;29.03;14.77;;;-6.80;99.90;;;;;;5094831;28;20220;-71
2024/01/17 04:29:20;;;;;;;25.93;14.43;;;-6.80;99.90;;;;;;5094903;28;20200;-71
2024/01/17 04:31:47;;;;;;;24.13;14.57;;;-6.80;99.90;;;;;;5094808;28;20200;-72
2024/01/17 04:34:13;;;;;;;23.37;14.70;;;-6.80;99.90;;;;;;5094703;28;20668;-71
2024/01/17 04:36:41;;;;;;;27.93;15.60;;;-6.70;99.90;;;;;;5094614;28;20254;-72
2024/01/17 04:39:08;;;;;;;26.57;15.50;;;-6.70;99.90;;;;;;5094907;28;20200;-72
2024/01/17 04:41:36;;;;;;;24.37;15.53;;;-6.60;99.90;;;;;;5094662;28;20299;-71
2024/01/17 04:44:03;;;;;;;27.90;15.03;;;-6.60;99.90;;;;;;5094640;28;20229;-71
2024/01/17 04:46:29;;;;;;;22.90;14.37;;;-6.50;99.90;;;;;;5094589;28;20283;-72
2024/01/17 04:48:56;;;;;;;26.33;14.70;;;-6.50;99.90;;;;;;5094673;28;20231;-72
2024/01/17 04:51:25;;;;;;;24.67;14.77;;;-6.50;99.90;;;;;;5094585;28;20192;-72
2024/01/17 04:53:52;;;;;;;20.80;14.93;;;-6.50;99.90;;;;;;5094688;28;20210;-72
2024/01/17 04:56:19;;;;;;;27.60;15.17;;;-6.50;99.90;;;;;;5094376;28;20199;-72
2024/01/17 04:58:47;;;;;;;26.70;15.47;;;-6.50;99.90;;;;;;5094280;28;20203;-72
2024/01/17 05:01:13;;;;;;;26.30;16.33;;;-6.50;99.90;;;;;;5094113;28;20196;-72
2024/01/17 05:03:42;;;;;;;24.60;14.97;;;-6.40;99.90;;;;;;5094066;28;20224;-72
2024/01/17 05:06:09;;;;;;;24.10;15.27;;;-6.40;99.90;;;;;;5094342;28;20307;-72
2024/01/17 05:08:35;;;;;;;27.13;15.70;;;-6.30;99.90;;;;;;5094350;28;20564;-72
2024/01/17 05:11:02;;;;;;;26.80;16.10;;;-6.30;99.90;;;;;;5094189;28;20601;-72
2024/01/17 05:13:29;;;;;;;25.60;16.47;;;-6.20;99.90;;;;;;5093797;28;20204;-72
2024/01/17 05:15:57;;;;;;;24.93;16.30;;;-6.10;99.90;;;;;;5094025;28;20196;-71
2024/01/17 05:18:23;;;;;;;25.17;15.50;;;-6.10;99.90;;;;;;5093809;28;20196;-71
2024/01/17 05:20:50;;;;;;;25.37;16.43;;;-6.00;99.90;;;;;;5093409;28;20200;-72
2024/01/17 05:23:17;;;;;;;26.53;15.93;;;-6.00;99.90;;;;;;5093742;28;20228;-72
2024/01/17 05:25:43;;;;;;;27.33;16.20;;;-6.00;99.90;;;;;;5093563;28;20614;-71
2024/01/17 05:28:10;;;;;;;28.40;16.63;;;-6.00;99.90;;;;;;5093614;28;20236;-72
2024/01/17 05:30:37;;;;;;;26.60;16.07;;;-6.00;99.90;;;;;;5093711;28;20202;-72
2024/01/17 05:33:05;;;;;;;30.50;16.20;;;-6.00;99.90;;;;;;5092843;28;20286;-72
2024/01/17 05:35:32;;;;;;;26.40;15.60;;;-5.90;99.90;;;;;;5093817;28;20200;-72
2024/01/17 05:37:59;;;;;;;26.17;16.03;;;-5.90;99.90;;;;;;5093746;28;20196;-72
2024/01/17 05:40:26;;;;;;;25.07;15.63;;;-5.80;99.90;;;;;;5093571;28;20246;-72
2024/01/17 05:42:53;;;;;;;29.37;14.80;;;-5.80;99.90;;;;;;5093545;28;20220;-72
2024/01/17 05:45:19;;;;;;;23.43;15.53;;;-5.80;99.90;;;;;;5092943;28;20579;-71
2024/01/17 05:47:46;;;;;;;25.60;16.00;;;-5.70;99.90;;;;;;5093300;28;20195;-72
2024/01/17 05:50:14;;;;;;;24.30;15.93;;;-5.60;99.90;;;;;;5097099;28;20242;-72
2024/01/17 05:52:42;;;;;;;25.60;15.60;;;-5.60;99.90;;;;;;5097305;28;20245;-72
2024/01/17 05:55:10;;;;;;;31.47;17.43;;;-5.50;99.90;;;;;;5093190;28;20295;-72
2024/01/17 05:57:37;;;;;;;28.27;16.80;;;-5.40;99.90;;;;;;5093318;28;20200;-72
2024/01/17 06:00:05;;;;;;;30.13;17.77;;;-5.40;99.90;;;;;;5093137;28;20265;-72
2024/01/17 06:02:32;;;;;;;29.30;17.17;;;-5.30;99.90;;;;;;5093169;28;20204;-72
2024/01/17 06:04:59;;;;;;;28.60;17.57;;;-5.20;99.90;;;;;;5093041;28;20606;-72
2024/01/17 06:07:27;;;;;;;28.67;17.93;;;-5.10;99.90;;;;;;5093244;28;20200;-72
2024/01/17 06:09:53;;;;;;;28.83;17.03;;;-5.00;99.90;;;;;;5093011;28;20602;-72
2024/01/17 06:12:20;;;;;;;28.53;17.53;;;-5.00;99.90;;;;;;5093004;28;20253;-72
2024/01/17 06:14:49;;;;;;;25.93;17.97;;;-4.80;99.90;;;;;;5092928;28;20216;-72
2024/01/17 06:17:16;;;;;;;32.40;18.80;;;-4.70;99.90;;;;;;5093231;28;20201;-72
2024/01/17 06:19:42;;;;;;;30.17;19.00;;;-4.70;99.90;;;;;;5092979;28;20197;-72
2024/01/17 06:22:09;;;;;;;28.77;18.87;;;-4.60;99.90;;;;;;5092966;28;20206;-73
2024/01/17 06:24:37;;;;;;;32.83;19.30;;;-4.60;99.90;;;;;;5092787;28;20224;-73
2024/01/17 06:27:04;;;;;;;35.63;19.30;;;-4.50;99.90;;;;;;5092610;28;20228;-73
2024/01/17 06:29:33;;;;;;;27.83;18.43;;;-4.50;99.90;;;;;;5092875;28;20593;-73
2024/01/17 06:32:00;;;;;;;32.13;19.47;;;-4.50;99.90;;;;;;5092912;28;20198;-72
2024/01/17 06:34:27;;;;;;;28.67;18.93;;;-4.40;99.90;;;;;;5092842;28;20252;-72
2024/01/17 06:36:53;;;;;;;26.90;17.93;;;-4.30;99.90;;;;;;5092759;28;20536;-72
2024/01/17 06:39:20;;;;;;;32.10;18.33;;;-4.30;99.90;;;;;;5092796;28;20197;-72
2024/01/17 06:41:48;;;;;;;31.60;19.10;;;-4.20;99.90;;;;;;5092797;28;20262;-72
2024/01/17 06:44:14;;;;;;;31.17;19.67;;;-4.20;99.90;;;;;;5094678;28;20252;-72
2024/01/17 06:46:41;;;;;;;27.97;18.27;;;-4.10;99.90;;;;;;5097088;28;20201;-72
2024/01/17 06:49:08;;;;;;;33.03;19.43;;;-4.10;99.90;;;;;;5096989;28;20284;-72
2024/01/17 06:51:34;;;;;;;27.63;18.20;;;-4.00;99.90;;;;;;5097042;28;20196;-71
2024/01/17 06:54:01;;;;;;;31.70;19.73;;;-4.00;99.90;;;;;;5096825;28;20605;-72
2024/01/17 06:56:28;;;;;;;34.13;20.37;;;-3.90;99.90;;;;;;5096706;28;20202;-72
2024/01/17 06:58:56;;;;;;;28.33;19.17;;;-3.80;99.90;;;;;;5096965;28;20215;-72
2024/01/17 07:01:22;;;;;;;32.70;20.70;;;-3.80;99.90;;;;;;5096474;28;20588;-72
2024/01/17 07:03:49;;;;;;;35.93;20.60;;;-3.70;99.90;;;;;;5097163;28;20219;-72
2024/01/17 07:06:15;;;;;;;33.33;20.33;;;-3.60;99.90;;;;;;5096390;28;20201;-72
2024/01/17 07:08:42;;;;;;;34.03;20.77;;;-3.50;99.90;;;;;;5096543;28;20252;-72
2024/01/17 07:11:10;;;;;;;36.80;20.93;;;-3.40;99.90;;;;;;5096528;28;20600;-72
2024/01/17 07:13:37;;;;;;;33.50;22.13;;;-3.50;99.90;;;;;;5096544;28;20294;-71
2024/01/17 07:16:05;;;;;;;32.37;20.40;;;-3.40;99.90;;;;;;5096261;28;20252;-72
2024/01/17 07:18:33;;;;;;;35.43;22.00;;;-3.30;99.90;;;;;;5096339;28;20252;-71
2024/01/17 07:20:59;;;;;;;35.20;21.50;;;-3.30;99.90;;;;;;5096417;28;20192;-71
2024/01/17 07:23:26;;;;;;;35.63;21.67;;;-3.20;99.90;;;;;;5095989;28;20216;-72
2024/01/17 07:25:53;;;;;;;36.27;22.30;;;-3.20;99.90;;;;;;5096376;28;20192;-72
2024/01/17 07:28:20;;;;;;;36.07;22.53;;;-3.10;99.90;;;;;;5096180;28;20228;-73
2024/01/17 07:30:46;;;;;;;34.50;22.53;;;-3.00;99.90;;;;;;5096007;28;20626;-72
2024/01/17 07:33:14;;;;;;;39.67;22.60;;;-2.90;99.90;;;;;;5096137;28;20250;-73
2024/01/17 07:35:41;;;;;;;40.80;22.60;;;-2.80;99.90;;;;;;5095979;28;20199;-73
2024/01/17 07:38:07;;;;;;;33.47;21.83;;;-2.70;99.90;;;;;;5096223;28;20235;-74
2024/01/17 07:40:34;;;;;;;33.67;22.83;;;-2.60;99.90;;;;;;5096214;28;20196;-72
2024/01/17 07:43:01;;;;;;;33.93;21.87;;;-2.60;99.90;;;;;;5095704;28;20709;-72
2024/01/17 07:45:27;;;;;;;36.53;23.07;;;-2.50;99.90;;;;;;5095894;28;20207;-73
2024/01/17 07:47:54;;;;;;;37.67;23.17;;;-2.50;99.90;;;;;;5095807;28;20200;-73
2024/01/17 07:50:23;;;;;;;36.27;22.47;;;-2.50;99.90;;;;;;5095646;28;20192;-73
2024/01/17 07:52:50;;;;;;;38.67;24.73;;;-2.40;99.90;;;;;;5095789;28;20285;-73
2024/01/17 07:55:16;;;;;;;36.70;24.50;;;-2.30;99.90;;;;;;5094997;28;20232;-73
2024/01/17 07:57:43;;;;;;;36.20;23.43;;;-2.30;99.90;;;;;;5095765;28;20193;-73
2024/01/17 08:00:11;;;;;;;36.83;24.37;;;-2.20;99.90;;;;;;5095531;28;20196;-73
2024/01/17 08:02:38;;;;;;;39.87;27.13;;;-2.00;99.90;;;;;;5095493;28;20659;-73
2024/01/17 08:05:05;;;;;;;37.70;25.80;;;-2.00;99.90;;;;;;5095439;28;20220;-73
2024/01/17 08:07:33;;;;;;;33.87;23.47;;;-1.90;99.90;;;;;;5095823;28;20197;-73
2024/01/17 08:09:59;;;;;;;35.07;24.40;;;-1.80;99.90;;;;;;5095401;28;20230;-73
2024/01/17 08:12:26;;;;;;;38.27;24.67;;;-1.70;99.90;;;;;;5094867;28;20204;-73
2024/01/17 08:14:53;;;;;;;34.87;24.57;;;-1.70;99.90;;;;;;5095365;28;20848;-73
2024/01/17 08:17:19;;;;;;;39.03;25.00;;;-1.50;99.90;;;;;;5095144;28;20245;-72
2024/01/17 08:19:46;;;;;;;34.30;23.20;;;-1.50;99.90;;;;;;5095192;28;20196;-73
2024/01/17 08:22:13;;;;;;;33.07;22.17;;;-1.40;99.90;;;;;;5095657;28;20257;-73
2024/01/17 08:24:42;;;;;;;34.60;22.77;;;-1.40;99.90;;;;;;5095136;28;20756;-73
2024/01/17 08:27:09;;;;;;;33.20;22.47;;;-1.30;99.90;;;;;;5095049;28;20231;-73
2024/01/17 08:29:36;;;;;;;31.13;21.87;;;-1.20;99.90;;;;;;5095124;28;20200;-73
2024/01/17 08:32:03;;;;;;;35.27;21.30;;;-1.10;99.90;;;;;;5095016;28;20196;-73
2024/01/17 08:34:30;;;;;;;33.00;23.37;;;-1.00;99.90;;;;;;5094870;28;20197;-72
2024/01/17 08:36:58;;;;;;;36.57;23.83;;;-1.00;99.90;;;;;;5095091;28;20200;-73
2024/01/17 08:39:25;;;;;;;36.03;23.63;;;-1.00;99.90;;;;;;5094872;28;20555;-73
2024/01/17 08:41:53;;;;;;;34.53;22.80;;;-0.90;99.90;;;;;;5095280;28;20210;-73
2024/01/17 08:44:22;;;;;;;34.93;23.60;;;-0.80;99.90;;;;;;5094584;28;20255;-74
2024/01/17 08:46:49;;;;;;;33.20;22.83;;;-0.70;99.90;;;;;;5094590;28;20284;-73
2024/01/17 08:49:16;;;;;;;35.47;22.50;;;-0.60;99.90;;;;;;5094863;28;20192;-73
2024/01/17 08:51:42;;;;;;;29.20;21.40;;;-0.60;99.90;;;;;;5094845;28;20651;-73
2024/01/17 08:54:10;;;;;;;38.70;22.30;;;-0.50;99.90;;;;;;5094981;28;20201;-73
2024/01/17 08:56:36;;;;;;;33.43;22.57;;;-0.40;99.90;;;;;;5094681;28;20631;-73
2024/01/17 08:59:04;;;;;;;36.77;23.13;;;-0.40;99.90;;;;;;5094249;28;20606;-73
2024/01/17 09:01:31;;;;;;;32.33;21.87;;;-0.30;99.90;;;;;;5094222;28;20204;-73
2024/01/17 09:03:57;;;;;;;33.60;22.03;;;-0.20;99.90;;;;;;5094566;28;20247;-73
2024/01/17 09:06:24;;;;;;;33.77;22.77;;;-0.20;99.90;;;;;;5093843;28;20250;-73
2024/01/17 09:08:51;;;;;;;28.63;21.93;;;-0.10;99.90;;;;;;5094109;28;20228;-73
2024/01/17 09:11:17;;;;;;;32.30;22.40;;;-0.10;99.90;;;;;;5094610;28;20266;-73
2024/01/17 09:13:46;;;;;;;31.27;21.03;;;0.00;99.90;;;;;;5094620;28;20200;-73
2024/01/17 09:16:14;;;;;;;34.03;22.20;;;0.10;99.90;;;;;;5094478;28;20200;-73
2024/01/17 09:18:40;;;;;;;32.13;21.67;;;0.20;99.90;;;;;;5094257;28;20230;-73
2024/01/17 09:21:07;;;;;;;32.80;21.27;;;0.30;99.90;;;;;;5101942;28;20208;-72
2024/01/17 09:23:34;;;;;;;28.70;19.60;;;0.30;99.90;;;;;;5093997;28;20200;-74
2024/01/17 09:26:01;;;;;;;25.53;18.43;;;0.50;99.90;;;;;;5094041;28;20196;-75
2024/01/17 09:28:27;;;;;;;27.30;19.77;;;0.60;99.90;;;;;;5093736;28;20232;-74
2024/01/17 09:30:54;;;;;;;28.77;22.23;;;0.70;99.90;;;;;;5093970;28;20200;-75
2024/01/17 09:33:22;;;;;;;23.80;17.63;;;0.90;99.90;;;;;;5093722;28;20669;-75
2024/01/17 09:35:48;;;;;;;23.30;16.87;;;1.00;99.90;;;;;;5093828;28;20200;-75
2024/01/17 09:38:15;;;;;;;21.90;16.53;;;1.10;99.90;;;;;;5093767;28;20245;-73
2024/01/17 09:40:43;;;;;;;24.47;17.03;;;1.20;99.90;;;;;;5093636;28;20193;-75
2024/01/17 09:43:10;;;;;;;23.50;16.37;;;1.30;99.90;;;;;;5093609;28;20200;-74
2024/01/17 09:45:37;;;;;;;25.77;18.30;;;1.40;99.90;;;;;;5093591;28;20227;-74
2024/01/17 09:48:05;;;;;;;20.90;15.97;;;1.40;99.90;;;;;;5093638;28;20208;-72
2024/01/17 09:50:33;;;;;;;25.10;17.27;;;1.40;99.90;;;;;;5093431;28;20249;-72
2024/01/17 09:53:01;;;;;;;23.13;16.43;;;1.50;99.90;;;;;;5093406;28;20245;-71
2024/01/17 09:55:29;;;;;;;21.40;16.87;;;1.60;99.90;;;;;;5093236;28;20196;-73
2024/01/17 09:57:57;;;;;;;22.23;16.10;;;1.60;99.90;;;;;;5093485;28;20307;-73
2024/01/17 10:00:25;;;;;;;20.97;15.20;;;1.70;99.90;;;;;;5093334;28;20682;-73
2024/01/17 10:02:53;;;;;;;20.17;14.97;;;1.80;99.90;;;;;;5093307;28;20223;-74
2024/01/17 10:05:22;;;;;;;20.87;14.10;;;1.80;99.90;;;;;;5093078;28;20748;-77
2024/01/17 10:07:52;;;;;;;19.73;14.37;;;1.80;99.90;;;;;;5093099;28;20642;-76
2024/01/17 10:10:21;;;;;;;18.87;14.83;;;1.80;99.90;;;;;;5093265;28;20192;-77
2024/01/17 10:12:47;;;;;;;16.50;12.90;;;1.90;99.90;;;;;;5088097;28;20300;-77
2024/01/17 10:15:15;;;;;;;15.50;12.27;;;1.90;99.90;;;;;;5073721;28;20656;-76
2024/01/17 10:17:42;;;;;;;18.87;14.10;;;2.00;99.90;;;;;;5068595;28;20244;-77
2024/01/17 10:20:10;;;;;;;17.00;12.47;;;2.10;99.90;;;;;;5052435;28;20239;-76
2024/01/17 10:22:38;;;;;;;15.40;12.50;;;2.00;99.90;;;;;;5052768;28;20185;-78
2024/01/17 10:25:06;;;;;;;14.77;11.97;;;2.00;99.90;;;;;;5052446;28;20229;-75
2024/01/17 10:27:34;;;;;;;17.33;12.43;;;2.00;99.90;;;;;;5065197;28;20237;-75
2024/01/17 10:30:02;;;;;;;15.23;11.43;;;2.00;99.90;;;;;;5092954;28;20197;-75
2024/01/17 10:32:31;;;;;;;15.07;11.93;;;2.10;99.90;;;;;;5092627;28;20200;-76
2024/01/17 10:34:58;;;;;;;16.10;12.43;;;2.10;99.90;;;;;;5092846;28;20204;-76
2024/01/17 10:37:26;;;;;;;16.63;12.40;;;2.10;99.90;;;;;;5092616;28;20192;-77
2024/01/17 10:40:11;;;;;;;17.03;12.93;;;2.10;99.90;;;;;;5093059;28;20594;-77
2024/01/17 10:42:38;;;;;;;16.47;12.40;;;2.10;99.90;;;;;;5092641;28;20192;-76
2024/01/17 10:45:05;;;;;;;16.30;12.17;;;2.10;99.90;;;;;;5092515;28;20228;-76
2024/01/17 10:47:32;;;;;;;15.13;12.03;;;2.20;99.90;;;;;;5092355;28;20196;-74
2024/01/17 10:49:59;;;;;;;17.40;12.70;;;2.20;99.90;;;;;;5092558;28;20648;-75
2024/01/17 10:52:26;;;;;;;17.27;13.00;;;2.30;99.90;;;;;;5092422;28;20204;-76
2024/01/17 10:55:10;;;;;;;17.70;12.20;;;2.40;99.90;;;;;;5072518;28;20193;-75
2024/01/17 10:57:42;;;;;;;15.63;12.20;;;2.50;99.90;;;;;;5073939;28;20552;-75
2024/01/17 11:00:14;;;;;;;15.27;12.33;;;2.60;99.90;;;;;;5092616;28;20250;-77
2024/01/17 11:02:42;;;;;;;14.70;11.67;;;2.70;99.90;;;;;;5075552;28;20197;-75
2024/01/17 11:05:11;;;;;;;17.87;13.63;;;2.80;99.90;;;;;;5092380;28;20755;-77
2024/01/17 11:07:38;;;;;;;15.33;11.43;;;3.00;99.90;;;;;;5092553;28;20250;-77
2024/01/17 11:10:06;;;;;;;16.80;11.73;;;3.00;99.90;;;;;;5092358;28;20203;-76
2024/01/17 11:12:36;;;;;;;15.40;12.03;;;3.20;99.90;;;;;;5091775;28;20188;-76
2024/01/17 11:15:04;;;;;;;13.97;10.67;;;3.20;99.90;;;;;;5092402;28;20251;-75
2024/01/17 11:17:35;;;;;;;13.37;10.90;;;3.10;99.90;;;;;;5092243;28;20215;-76
2024/01/17 11:20:06;;;;;;;12.17;10.43;;;2.90;99.90;;;;;;5088164;28;20706;-76
2024/01/17 11:22:35;;;;;;;15.03;11.10;;;2.90;99.90;;;;;;5092210;28;20199;-75
2024/01/17 11:25:13;;;;;;;14.13;11.10;;;3.00;99.90;;;;;;5092052;28;20226;-75
2024/01/17 11:27:48;;;;;;;13.80;10.93;;;3.00;99.90;;;;;;5092057;28;20228;-77
2024/01/17 11:30:25;;;;;;;11.90;9.93;;;3.10;99.90;;;;;;5092211;28;20244;-77
2024/01/17 11:32:58;;;;;;;13.80;10.60;;;3.10;99.90;;;;;;5096097;28;20206;-74
2024/01/17 11:35:40;;;;;;;16.20;11.80;;;3.20;99.90;;;;;;5096042;28;20232;-75
2024/01/17 11:38:11;;;;;;;16.20;13.40;;;3.10;99.90;;;;;;5093101;28;20203;-77
2024/01/17 11:40:38;;;;;;;17.83;11.13;;;3.00;99.90;;;;;;5096038;28;20200;-76
2024/01/17 11:43:07;;;;;;;14.47;10.43;;;2.90;99.90;;;;;;5095994;28;20247;-77
2024/01/17 11:45:36;;;;;;;15.93;10.83;;;2.80;99.90;;;;;;5095789;28;20755;-77
2024/01/17 11:48:12;;;;;;;13.30;10.93;;;2.90;99.90;;;;;;5095938;28;20193;-76
2024/01/17 11:50:39;;;;;;;12.80;10.77;;;2.80;99.90;;;;;;5095967;28;20196;-76
2024/01/17 11:53:06;;;;;;;16.47;10.77;;;2.80;99.90;;;;;;5095781;28;20197;-77
2024/01/17 11:55:33;;;;;;;13.07;10.23;;;2.70;99.90;;;;;;5095850;28;20204;-77
2024/01/17 11:58:01;;;;;;;14.63;12.10;;;2.60;99.90;;;;;;5095753;28;20224;-76
2024/01/17 12:00:29;;;;;;;16.60;11.47;;;2.50;99.90;;;;;;5095607;28;20201;-76
2024/01/17 12:02:59;;;;;;;12.47;10.73;;;2.50;99.90;;;;;;5095575;28;20238;-76
2024/01/17 12:05:26;;;;;;;13.20;9.77;;;2.50;99.90;;;;;;5095596;28;20228;-76
2024/01/17 12:07:53;;;;;;;12.20;9.67;;;2.50;99.90;;;;;;5095489;28;20605;-77
2024/01/17 12:10:20;;;;;;;13.87;10.07;;;2.50;99.90;;;;;;5094792;28;20197;-76
2024/01/17 12:12:47;;;;;;;12.20;10.10;;;2.40;99.90;;;;;;5095440;28;20254;-85
2024/01/17 12:15:14;;;;;;;13.47;9.97;;;2.40;99.90;;;;;;5094628;28;20201;-75
2024/01/17 12:17:44;;;;;;;12.00;9.37;;;2.40;99.90;;;;;;5092713;28;20242;-74
2024/01/17 12:20:11;;;;;;;14.53;10.33;;;2.30;99.90;;;;;;5093275;28;20245;-75
2024/01/17 12:22:38;;;;;;;15.57;10.50;;;2.30;99.90;;;;;;5094859;28;20667;-73
2024/01/17 12:25:05;;;;;;;13.40;9.87;;;2.30;99.90;;;;;;5095037;28;20220;-76
2024/01/17 12:27:33;;;;;;;13.60;10.47;;;2.20;99.90;;;;;;5094602;28;20220;-76
2024/01/17 12:30:02;;;;;;;12.17;9.00;;;2.20;99.90;;;;;;5094876;28;20560;-76
2024/01/17 12:32:29;;;;;;;11.53;9.30;;;2.20;99.90;;;;;;5094799;28;20283;-73